createdAt,value
2023-04-16T00:00:09.984Z,11.94
2023-04-16T00:02:36.982Z,11.98
2023-04-16T00:08:15.912Z,11.96
2023-04-16T00:10:42.394Z,11.87
2023-04-16T00:13:08.782Z,11.82
2023-04-16T00:15:35.487Z,11.77
2023-04-16T00:18:02.006Z,11.69
2023-04-16T00:20:28.464Z,11.60
2023-04-16T00:22:55.004Z,11.56
2023-04-16T00:25:21.660Z,11.55
2023-04-16T00:27:48.147Z,11.56
2023-04-16T00:30:15.000Z,11.55
2023-04-16T00:32:41.412Z,11.55
2023-04-16T00:35:08.171Z,11.54
2023-04-16T00:37:34.668Z,11.53
2023-04-16T00:40:01.238Z,11.50
2023-04-16T00:42:27.769Z,11.50
2023-04-16T00:44:54.296Z,11.48
2023-04-16T00:47:20.754Z,11.43
2023-04-16T00:49:47.276Z,11.38
2023-04-16T00:52:13.694Z,11.37
2023-04-16T00:54:40.384Z,11.33
2023-04-16T00:57:06.792Z,11.31
2023-04-16T00:59:33.286Z,11.31
2023-04-16T01:01:59.780Z,11.30
2023-04-16T01:04:26.625Z,11.33
2023-04-16T01:06:53.515Z,11.33
2023-04-16T01:09:19.994Z,11.31
2023-04-16T01:11:46.418Z,11.34
2023-04-16T01:14:12.858Z,11.35
2023-04-16T01:16:39.262Z,11.36
2023-04-16T01:19:05.691Z,11.37
2023-04-16T01:21:32.506Z,11.37
2023-04-16T01:24:02.314Z,11.37
2023-04-16T01:26:28.825Z,11.40
2023-04-16T01:28:55.318Z,11.42
2023-04-16T01:31:21.747Z,11.44
2023-04-16T01:33:48.346Z,11.45
2023-04-16T01:36:14.704Z,11.42
2023-04-16T01:38:43.421Z,11.42
2023-04-16T01:41:09.834Z,11.42
2023-04-16T01:43:38.405Z,11.43
2023-04-16T01:46:11.788Z,11.43
2023-04-16T01:48:38.244Z,11.40
2023-04-16T01:51:05.036Z,11.40
2023-04-16T01:53:31.504Z,11.40
2023-04-16T01:55:57.919Z,11.38
2023-04-16T01:58:24.330Z,11.38
2023-04-16T02:00:50.760Z,11.38
2023-04-16T02:03:18.767Z,11.32
2023-04-16T02:05:45.356Z,11.29
2023-04-16T02:08:11.890Z,11.24
2023-04-16T02:10:38.317Z,11.15
2023-04-16T02:13:04.974Z,11.14
2023-04-16T02:15:31.438Z,11.14
2023-04-16T02:17:58.005Z,11.14
2023-04-16T02:20:25.170Z,11.16
2023-04-16T02:22:51.662Z,11.17
2023-04-16T02:25:18.162Z,11.18
2023-04-16T02:27:44.550Z,11.20
2023-04-16T02:30:11.229Z,11.25
2023-04-16T02:32:37.596Z,11.31
2023-04-16T02:35:04.163Z,11.39
2023-04-16T02:37:30.959Z,11.47
2023-04-16T02:39:57.831Z,11.53
2023-04-16T02:42:24.220Z,11.56
2023-04-16T02:44:50.711Z,11.56
2023-04-16T02:47:17.233Z,11.54
2023-04-16T02:49:43.741Z,11.54
2023-04-16T02:52:10.220Z,11.56
2023-04-16T02:54:36.645Z,11.56
2023-04-16T02:57:03.459Z,11.58
2023-04-16T02:59:29.874Z,11.61
2023-04-16T03:01:56.419Z,11.58
2023-04-16T03:04:23.345Z,11.58
2023-04-16T03:06:49.817Z,11.55
2023-04-16T03:09:16.331Z,11.54
2023-04-16T03:11:42.757Z,11.56
2023-04-16T03:14:09.462Z,11.58
2023-04-16T03:16:36.419Z,11.58
2023-04-16T03:19:02.807Z,11.56
2023-04-16T03:21:29.252Z,11.52
2023-04-16T03:23:56.136Z,11.48
2023-04-16T03:26:22.694Z,11.47
2023-04-16T03:28:49.171Z,11.49
2023-04-16T03:31:15.641Z,11.53
2023-04-16T03:33:42.820Z,11.55
2023-04-16T03:36:10.102Z,11.57
2023-04-16T03:38:36.487Z,11.55
2023-04-16T03:41:02.980Z,11.54
2023-04-16T03:43:29.442Z,11.53
2023-04-16T03:45:55.891Z,11.50
2023-04-16T03:48:22.289Z,11.43
2023-04-16T03:50:48.779Z,11.37
2023-04-16T03:53:15.495Z,11.31
2023-04-16T03:55:42.150Z,11.26
2023-04-16T03:58:08.662Z,11.23
2023-04-16T04:00:35.332Z,11.20
2023-04-16T04:03:01.954Z,11.13
2023-04-16T04:05:28.717Z,11.06
2023-04-16T04:07:55.521Z,10.99
2023-04-16T04:10:21.868Z,10.98
2023-04-16T04:12:48.316Z,10.97
2023-04-16T04:15:14.873Z,10.98
2023-04-16T04:17:41.380Z,10.95
2023-04-16T04:20:08.077Z,10.94
2023-04-16T04:22:34.488Z,10.96
2023-04-16T04:25:00.911Z,11.00
2023-04-16T04:27:27.350Z,11.05
2023-04-16T04:29:53.753Z,11.08
2023-04-16T04:32:20.266Z,11.12
2023-04-16T04:34:46.724Z,11.15
2023-04-16T04:37:13.150Z,11.17
2023-04-16T04:39:39.535Z,11.17
2023-04-16T04:42:06.050Z,11.14
2023-04-16T04:44:32.805Z,11.04
2023-04-16T04:46:59.452Z,10.95
2023-04-16T04:49:26.120Z,10.92
2023-04-16T04:51:52.672Z,10.93
2023-04-16T04:54:19.118Z,10.94
2023-04-16T04:56:46.041Z,10.88
2023-04-16T04:59:12.719Z,10.83
2023-04-16T05:01:40.224Z,10.88
2023-04-16T05:04:06.840Z,10.92
2023-04-16T05:06:33.324Z,10.97
2023-04-16T05:09:00.074Z,11.01
2023-04-16T05:11:26.519Z,11.07
2023-04-16T05:13:52.949Z,11.09
2023-04-16T05:16:20.467Z,11.14
2023-04-16T05:18:46.956Z,11.20
2023-04-16T05:21:13.367Z,11.27
2023-04-16T05:23:39.776Z,11.38
2023-04-16T05:26:06.184Z,11.46
2023-04-16T05:28:32.791Z,11.52
2023-04-16T05:30:59.807Z,11.58
2023-04-16T05:33:26.337Z,11.65
2023-04-16T05:35:52.827Z,11.71
2023-04-16T05:38:19.814Z,11.79
2023-04-16T05:40:46.320Z,11.89
2023-04-16T05:43:12.696Z,11.95
2023-04-16T05:45:41.223Z,12.04
2023-04-16T05:48:09.175Z,12.13
2023-04-16T05:50:36.096Z,12.18
2023-04-16T05:53:05.325Z,12.23
2023-04-16T05:55:31.759Z,12.30
2023-04-16T05:57:58.141Z,12.38
2023-04-16T06:00:24.609Z,12.49
2023-04-16T06:02:51.424Z,12.61
2023-04-16T06:05:19.290Z,12.72
2023-04-16T06:07:45.735Z,12.84
2023-04-16T06:10:12.171Z,12.92
2023-04-16T06:12:38.684Z,12.98
2023-04-16T06:15:05.621Z,12.96
2023-04-16T06:17:32.082Z,12.99
2023-04-16T06:19:58.816Z,13.03
2023-04-16T06:22:25.546Z,13.06
2023-04-16T06:24:52.882Z,13.05
2023-04-16T06:27:19.325Z,13.06
2023-04-16T06:29:45.751Z,13.09
2023-04-16T06:32:12.237Z,13.12
2023-04-16T06:34:39.248Z,13.20
2023-04-16T06:37:06.420Z,13.28
2023-04-16T06:39:34.212Z,13.36
2023-04-16T06:42:03.729Z,13.45
2023-04-16T06:44:30.207Z,13.57
2023-04-16T06:46:56.646Z,13.70
2023-04-16T06:49:23.182Z,13.79
2023-04-16T06:51:49.726Z,13.89
2023-04-16T06:54:16.843Z,13.99
2023-04-16T06:56:43.324Z,14.06
2023-04-16T06:59:09.946Z,14.11
2023-04-16T07:01:36.615Z,14.18
2023-04-16T07:04:03.697Z,14.24
2023-04-16T07:06:30.258Z,14.29
2023-04-16T07:08:56.706Z,14.39
2023-04-16T07:11:23.183Z,14.45
2023-04-16T07:13:51.285Z,14.50
2023-04-16T07:16:17.905Z,14.57
2023-04-16T07:18:44.738Z,14.66
2023-04-16T07:21:11.511Z,14.75
2023-04-16T07:23:37.893Z,14.87
2023-04-16T07:26:04.396Z,14.94
2023-04-16T07:28:30.875Z,15.01
2023-04-16T07:30:57.304Z,15.11
2023-04-16T07:33:24.404Z,15.22
2023-04-16T07:35:51.428Z,15.37
2023-04-16T07:38:17.819Z,15.53
2023-04-16T07:40:44.228Z,15.64
2023-04-16T07:43:10.704Z,15.76
2023-04-16T07:45:37.166Z,15.88
2023-04-16T07:48:03.768Z,16.00
2023-04-16T07:50:30.276Z,16.10
2023-04-16T07:52:56.726Z,16.23
2023-04-16T07:55:23.237Z,16.34
2023-04-16T07:57:49.671Z,16.46
2023-04-16T08:00:16.246Z,16.56
2023-04-16T08:02:43.322Z,16.67
2023-04-16T08:05:10.174Z,16.78
2023-04-16T08:07:36.664Z,16.87
2023-04-16T08:10:03.280Z,16.95
2023-04-16T08:12:29.841Z,17.02
2023-04-16T08:14:56.335Z,17.05
2023-04-16T08:17:22.922Z,17.08
2023-04-16T08:19:49.419Z,17.09
2023-04-16T08:22:16.161Z,17.10
2023-04-16T08:24:42.701Z,17.11
2023-04-16T08:27:18.326Z,17.10
2023-04-16T08:29:45.557Z,17.10
2023-04-16T08:32:11.926Z,17.12
2023-04-16T08:34:38.413Z,17.14
2023-04-16T08:37:04.931Z,17.14
2023-04-16T08:39:31.396Z,17.16
2023-04-16T08:41:57.806Z,17.19
2023-04-16T08:44:28.368Z,17.23
2023-04-16T08:46:59.100Z,17.29
2023-04-16T08:49:26.143Z,17.32
2023-04-16T08:51:55.988Z,17.35
2023-04-16T08:54:32.775Z,17.37
2023-04-16T08:56:59.812Z,17.40
2023-04-16T08:59:26.782Z,17.44
2023-04-16T09:01:56.246Z,17.49
2023-04-16T09:04:22.918Z,17.53
2023-04-16T09:06:49.667Z,17.58
2023-04-16T09:09:16.093Z,17.61
2023-04-16T09:11:42.737Z,17.64
2023-04-16T09:14:09.670Z,17.70
2023-04-16T09:16:36.395Z,17.76
2023-04-16T09:19:02.861Z,17.77
2023-04-16T09:21:29.306Z,17.79
2023-04-16T09:23:55.714Z,17.83
2023-04-16T09:26:22.693Z,17.83
2023-04-16T09:28:50.924Z,17.84
2023-04-16T09:31:17.964Z,17.85
2023-04-16T09:33:45.117Z,17.85
2023-04-16T09:36:11.554Z,17.88
2023-04-16T09:38:51.455Z,17.90
2023-04-16T09:41:18.607Z,17.92
2023-04-16T09:43:56.074Z,17.95
2023-04-16T09:46:22.626Z,17.96
2023-04-16T09:48:49.125Z,17.97
2023-04-16T09:51:15.596Z,18.00
2023-04-16T09:53:42.004Z,18.02
2023-04-16T09:56:08.877Z,18.03
2023-04-16T09:58:38.547Z,18.07
2023-04-16T10:01:09.336Z,18.08
2023-04-16T10:03:36.915Z,18.07
2023-04-16T10:06:06.486Z,18.08
2023-04-16T10:08:32.990Z,18.11
2023-04-16T10:10:59.422Z,18.13
2023-04-16T10:13:28.044Z,18.14
2023-04-16T10:15:57.892Z,18.16
2023-04-16T10:18:24.421Z,18.19
2023-04-16T10:20:50.968Z,18.21
2023-04-16T10:23:17.413Z,18.23
2023-04-16T10:25:45.077Z,18.23
2023-04-16T10:28:11.527Z,18.22
2023-04-16T10:30:38.207Z,18.22
2023-04-16T10:33:04.783Z,18.22
2023-04-16T10:35:31.388Z,18.23
2023-04-16T10:37:57.979Z,18.24
2023-04-16T10:40:25.732Z,18.25
2023-04-16T10:42:58.490Z,18.24
2023-04-16T10:45:32.803Z,18.25
2023-04-16T10:47:59.212Z,18.26
2023-04-16T10:50:25.752Z,18.29
2023-04-16T10:53:12.144Z,18.30
2023-04-16T10:55:39.064Z,18.35
2023-04-16T10:58:25.506Z,18.40
2023-04-16T11:00:52.015Z,18.44
2023-04-16T11:03:18.543Z,18.45
2023-04-16T11:05:46.990Z,18.47
2023-04-16T11:08:16.394Z,18.49
2023-04-16T11:10:43.909Z,18.51
2023-04-16T11:13:10.830Z,18.53
2023-04-16T11:15:37.336Z,18.55
2023-04-16T11:18:04.215Z,18.56
2023-04-16T11:20:30.832Z,18.55
2023-04-16T11:22:57.962Z,18.56
2023-04-16T11:25:25.228Z,18.55
2023-04-16T11:27:52.106Z,18.56
2023-04-16T11:30:18.947Z,18.60
2023-04-16T11:32:45.681Z,18.63
2023-04-16T11:35:16.293Z,18.64
2023-04-16T11:37:42.713Z,18.65
2023-04-16T11:40:12.612Z,18.64
2023-04-16T11:42:42.846Z,18.64
2023-04-16T11:45:09.911Z,18.64
2023-04-16T11:47:46.624Z,18.65
2023-04-16T11:50:20.422Z,18.67
2023-04-16T11:52:48.278Z,18.71
2023-04-16T11:55:15.590Z,18.75
2023-04-16T11:57:42.271Z,18.78
2023-04-16T12:00:13.972Z,18.80
2023-04-16T12:02:41.410Z,18.84
2023-04-16T12:05:26.681Z,18.82
2023-04-16T12:07:53.100Z,18.80
2023-04-16T12:10:19.620Z,18.79
2023-04-16T12:12:46.165Z,18.78
2023-04-16T12:15:12.668Z,18.72
2023-04-16T12:17:39.235Z,18.67
2023-04-16T12:20:09.640Z,18.62
2023-04-16T12:22:37.442Z,18.63
2023-04-16T12:25:06.026Z,18.63
2023-04-16T12:28:01.714Z,18.63
2023-04-16T12:30:28.188Z,18.63
2023-04-16T12:33:13.847Z,18.66
2023-04-16T12:35:41.921Z,18.65
2023-04-16T12:38:08.353Z,18.63
2023-04-16T12:40:36.886Z,18.62
2023-04-16T12:43:03.656Z,18.59
2023-04-16T12:45:30.042Z,18.58
2023-04-16T12:47:56.674Z,18.57
2023-04-16T12:50:24.369Z,18.58
2023-04-16T12:52:50.951Z,18.58
2023-04-16T12:55:17.557Z,18.55
2023-04-16T12:57:44.426Z,18.52
2023-04-16T13:00:11.236Z,18.50
2023-04-16T13:02:37.958Z,18.50
2023-04-16T13:05:04.826Z,18.48
2023-04-16T13:07:32.306Z,18.46
2023-04-16T13:09:58.754Z,18.48
2023-04-16T13:12:25.361Z,18.49
2023-04-16T13:14:51.793Z,18.49
2023-04-16T13:17:18.248Z,18.49
2023-04-16T13:19:45.256Z,18.49
2023-04-16T13:22:11.665Z,18.49
2023-04-16T13:24:38.985Z,18.45
2023-04-16T13:27:05.854Z,18.44
2023-04-16T13:29:32.314Z,18.39
2023-04-16T13:31:58.677Z,18.35
2023-04-16T13:34:25.151Z,18.33
2023-04-16T13:36:51.564Z,18.28
2023-04-16T13:39:18.192Z,18.25
2023-04-16T13:41:44.584Z,18.22
2023-04-16T13:44:11.007Z,18.20
2023-04-16T13:46:37.543Z,18.19
2023-04-16T13:49:03.962Z,18.18
2023-04-16T13:51:30.460Z,18.20
2023-04-16T13:53:56.859Z,18.21
2023-04-16T13:56:23.333Z,18.21
2023-04-16T13:58:50.814Z,18.22
2023-04-16T14:01:17.386Z,18.22
2023-04-16T14:03:44.030Z,18.21
2023-04-16T14:06:10.510Z,18.18
2023-04-16T14:08:38.282Z,18.16
2023-04-16T14:11:06.480Z,18.15
2023-04-16T14:13:32.877Z,18.12
2023-04-16T14:15:59.347Z,18.11
2023-04-16T14:18:25.880Z,18.12
2023-04-16T14:20:52.309Z,18.12
2023-04-16T14:23:18.822Z,18.15
2023-04-16T14:25:45.300Z,18.16
2023-04-16T14:28:13.068Z,18.15
2023-04-16T14:30:41.487Z,18.13
2023-04-16T14:33:07.939Z,18.15
2023-04-16T14:35:35.029Z,18.16
2023-04-16T14:38:01.566Z,18.18
2023-04-16T14:40:27.973Z,18.18
2023-04-16T14:42:54.449Z,18.18
2023-04-16T14:45:21.250Z,18.21
2023-04-16T14:47:48.227Z,18.21
2023-04-16T14:50:15.593Z,18.19
2023-04-16T14:52:42.184Z,18.18
2023-04-16T14:55:08.600Z,18.18
2023-04-16T14:57:35.382Z,18.19
2023-04-16T15:00:02.115Z,18.19
2023-04-16T15:02:28.652Z,18.19
2023-04-16T15:04:55.426Z,18.20
2023-04-16T15:07:22.131Z,18.20
2023-04-16T15:09:49.152Z,18.18
2023-04-16T15:12:17.923Z,18.16
2023-04-16T15:14:45.693Z,18.13
2023-04-16T15:17:12.202Z,18.15
2023-04-16T15:19:38.681Z,18.15
2023-04-16T15:22:05.094Z,18.14
2023-04-16T15:24:31.551Z,18.09
2023-04-16T15:26:58.140Z,18.05
2023-04-16T15:29:24.617Z,18.03
2023-04-16T15:31:51.159Z,18.00
2023-04-16T15:34:17.625Z,17.99
2023-04-16T15:36:44.035Z,17.97
2023-04-16T15:39:10.793Z,17.97
2023-04-16T15:41:50.246Z,17.95
2023-04-16T15:44:26.005Z,17.90
2023-04-16T15:46:53.610Z,17.87
2023-04-16T15:49:20.041Z,17.85
2023-04-16T15:51:46.567Z,17.84
2023-04-16T15:54:13.016Z,17.87
2023-04-16T15:56:39.689Z,17.89
2023-04-16T15:59:06.577Z,17.91
2023-04-16T16:01:33.084Z,17.94
2023-04-16T16:03:59.707Z,17.97
2023-04-16T16:06:27.171Z,17.99
2023-04-16T16:08:54.509Z,18.01
2023-04-16T16:11:21.256Z,18.04
2023-04-16T16:13:47.769Z,18.04
2023-04-16T16:16:14.917Z,18.04
2023-04-16T16:18:42.633Z,18.05
2023-04-16T16:21:09.019Z,18.06
2023-04-16T16:23:35.589Z,18.05
2023-04-16T16:26:03.205Z,18.07
2023-04-16T16:28:29.609Z,18.07
2023-04-16T16:30:58.710Z,18.07
2023-04-16T16:33:25.384Z,18.06
2023-04-16T16:35:51.834Z,18.07
2023-04-16T16:38:18.325Z,18.07
2023-04-16T16:40:45.130Z,18.09
2023-04-16T16:43:11.683Z,18.08
2023-04-16T16:45:38.610Z,18.05
2023-04-16T16:48:05.404Z,18.05
2023-04-16T16:50:32.640Z,18.07
2023-04-16T16:52:59.716Z,18.08
2023-04-16T16:55:26.492Z,18.08
2023-04-16T16:57:53.389Z,18.04
2023-04-16T17:00:21.603Z,17.98
2023-04-16T17:02:51.148Z,17.95
2023-04-16T17:05:17.904Z,17.93
2023-04-16T17:07:45.950Z,17.91
2023-04-16T17:10:15.874Z,17.88
2023-04-16T17:12:42.356Z,17.82
2023-04-16T17:15:09.218Z,17.80
2023-04-16T17:17:38.349Z,17.78
2023-04-16T17:20:09.266Z,17.78
2023-04-16T17:22:36.060Z,17.76
2023-04-16T17:25:02.599Z,17.76
2023-04-16T17:27:30.072Z,17.74
2023-04-16T17:30:00.183Z,17.72
2023-04-16T17:32:27.036Z,17.70
2023-04-16T17:34:56.580Z,17.67
2023-04-16T17:37:23.367Z,17.65
2023-04-16T17:39:49.867Z,17.63
2023-04-16T17:42:16.350Z,17.60
2023-04-16T17:44:42.875Z,17.58
2023-04-16T17:47:09.277Z,17.56
2023-04-16T17:49:36.108Z,17.55
2023-04-16T17:52:02.534Z,17.55
2023-04-16T17:54:28.963Z,17.55
2023-04-16T17:56:55.449Z,17.55
2023-04-16T17:59:21.931Z,17.53
2023-04-16T18:01:49.600Z,17.50
2023-04-16T18:04:16.472Z,17.48
2023-04-16T18:06:43.321Z,17.47
2023-04-16T18:09:09.771Z,17.47
2023-04-16T18:11:36.258Z,17.47
2023-04-16T18:14:02.753Z,17.44
2023-04-16T18:16:29.241Z,17.42
2023-04-16T18:18:55.833Z,17.41
2023-04-16T18:21:22.457Z,17.40
2023-04-16T18:23:48.864Z,17.41
2023-04-16T18:26:22.422Z,17.39
2023-04-16T18:28:49.428Z,17.38
2023-04-16T18:31:16.021Z,17.38
2023-04-16T18:33:54.172Z,17.38
2023-04-16T18:36:22.557Z,17.39
2023-04-16T18:39:01.042Z,17.43
2023-04-16T18:41:29.906Z,17.50
2023-04-16T18:43:57.721Z,17.55
2023-04-16T18:46:24.390Z,17.62
2023-04-16T18:48:50.994Z,17.59
2023-04-16T18:51:19.782Z,17.49
2023-04-16T18:53:48.543Z,17.38
2023-04-16T18:56:15.624Z,17.26
2023-04-16T18:58:44.788Z,17.12
2023-04-16T19:01:13.669Z,17.03
2023-04-16T19:03:40.141Z,16.97
2023-04-16T19:06:06.602Z,16.91
2023-04-16T19:08:33.097Z,16.91
2023-04-16T19:10:59.857Z,16.93
2023-04-16T19:13:26.437Z,16.95
2023-04-16T19:15:58.392Z,16.93
2023-04-16T19:18:24.970Z,16.90
2023-04-16T19:20:51.685Z,16.90
2023-04-16T19:23:18.066Z,16.92
2023-04-16T19:25:44.488Z,16.93
2023-04-16T19:28:18.434Z,16.94
2023-04-16T19:30:46.717Z,16.92
2023-04-16T19:33:13.410Z,16.92
2023-04-16T19:35:42.113Z,16.93
2023-04-16T19:38:11.183Z,16.93
2023-04-16T19:40:37.872Z,16.89
2023-04-16T19:43:04.321Z,16.86
2023-04-16T19:45:30.777Z,16.88
2023-04-16T19:47:57.267Z,16.98
2023-04-16T19:50:23.880Z,17.07
2023-04-16T19:52:54.036Z,17.31
2023-04-16T19:55:20.537Z,17.62
2023-04-16T19:57:48.772Z,17.70
2023-04-16T20:00:15.433Z,17.78
2023-04-16T20:02:42.102Z,17.68
2023-04-16T20:05:08.875Z,17.37
2023-04-16T20:07:35.406Z,17.02
2023-04-16T20:10:02.966Z,16.75
2023-04-16T20:12:29.479Z,16.52
2023-04-16T20:14:57.104Z,16.37
2023-04-16T20:17:26.170Z,16.27
2023-04-16T20:19:52.692Z,16.16
2023-04-16T20:22:20.208Z,16.09
2023-04-16T20:24:48.095Z,16.00
2023-04-16T20:27:15.501Z,15.94
2023-04-16T20:29:42.170Z,15.93
2023-04-16T20:32:08.699Z,15.94
2023-04-16T20:34:36.525Z,15.95
2023-04-16T20:37:03.012Z,15.98
2023-04-16T20:39:33.894Z,15.98
2023-04-16T20:42:04.774Z,16.00
2023-04-16T20:44:40.432Z,16.03
2023-04-16T20:47:07.691Z,16.07
2023-04-16T20:49:38.252Z,16.10
2023-04-16T20:52:05.087Z,16.15
2023-04-16T20:54:31.503Z,16.23
2023-04-16T20:56:59.028Z,16.27
2023-04-16T20:59:25.782Z,16.31
2023-04-16T21:01:52.437Z,16.39
2023-04-16T21:04:19.441Z,16.47
2023-04-16T21:06:46.171Z,16.52
2023-04-16T21:09:13.263Z,16.55
2023-04-16T21:11:41.418Z,16.58
2023-04-16T21:14:07.873Z,16.60
2023-04-16T21:16:34.370Z,16.59
2023-04-16T21:19:00.971Z,16.47
2023-04-16T21:21:27.558Z,16.24
2023-04-16T21:23:53.954Z,16.09
2023-04-16T21:26:20.748Z,16.00
2023-04-16T21:28:47.230Z,15.92
2023-04-16T21:31:13.692Z,15.88
2023-04-16T21:33:40.219Z,15.88
2023-04-16T21:36:06.775Z,15.88
2023-04-16T21:38:33.160Z,15.88
2023-04-16T21:41:00.994Z,15.85
2023-04-16T21:43:29.770Z,15.81
2023-04-16T21:45:57.434Z,15.78
2023-04-16T21:48:23.967Z,15.69
2023-04-16T21:50:58.280Z,15.58
2023-04-16T21:53:25.418Z,15.47
2023-04-16T21:55:52.266Z,15.38
2023-04-16T21:58:18.715Z,15.30
2023-04-16T22:00:45.517Z,15.23
2023-04-16T22:03:12.498Z,15.22
2023-04-16T22:05:41.231Z,15.20
2023-04-16T22:08:23.643Z,15.17
2023-04-16T22:10:51.243Z,15.15
2023-04-16T22:13:17.944Z,15.13
2023-04-16T22:15:44.410Z,15.14
2023-04-16T22:18:11.532Z,15.15
2023-04-16T22:20:39.532Z,15.17
2023-04-16T22:23:06.383Z,15.20
2023-04-16T22:25:32.951Z,15.21
2023-04-16T22:27:59.906Z,15.20
2023-04-16T22:30:26.338Z,15.23
2023-04-16T22:32:52.879Z,15.28
2023-04-16T22:35:19.333Z,15.33
2023-04-16T22:37:46.002Z,15.33
2023-04-16T22:40:12.410Z,15.39
2023-04-16T22:42:38.856Z,15.46
2023-04-16T22:45:07.466Z,15.50
2023-04-16T22:47:34.145Z,15.53
2023-04-16T22:50:03.492Z,15.54
2023-04-16T22:52:29.990Z,15.59
2023-04-16T22:54:56.479Z,15.63
2023-04-16T22:57:27.847Z,15.66
2023-04-16T22:59:54.336Z,15.68
2023-04-16T23:02:21.720Z,15.71
2023-04-16T23:04:48.191Z,15.73
2023-04-16T23:07:14.938Z,15.82
2023-04-16T23:09:41.379Z,15.92
2023-04-16T23:12:08.017Z,15.95
2023-04-16T23:14:35.173Z,15.95
2023-04-16T23:17:01.934Z,15.96
2023-04-16T23:19:28.787Z,15.96
2023-04-16T23:21:55.207Z,15.95
2023-04-16T23:24:23.814Z,15.93
2023-04-16T23:26:52.387Z,15.91
2023-04-16T23:29:18.940Z,15.90
2023-04-16T23:31:45.546Z,15.89
2023-04-16T23:34:12.061Z,15.89
2023-04-16T23:36:39.296Z,15.90
2023-04-16T23:39:05.748Z,15.95
2023-04-16T23:41:32.194Z,15.98
2023-04-16T23:43:58.730Z,16.02
2023-04-16T23:46:25.329Z,16.07
2023-04-16T23:48:52.687Z,16.12
2023-04-16T23:51:19.180Z,16.14
2023-04-16T23:53:45.702Z,16.14
2023-04-16T23:56:12.199Z,16.09
2023-04-16T23:58:38.702Z,16.08
